sensor_id;sensor_type;location;lat;lon;timestamp;pressure;altitude;pressure_sealevel;temperature;humidity
72794;BME280;63436;26.334;50.194;2023-04-20T00:00:07;100955.61;;;29.99;27.79
72794;BME280;63436;26.334;50.194;2023-04-20T00:02:29;100956.04;;;30.24;27.94
72794;BME280;63436;26.334;50.194;2023-04-20T00:04:58;100951.31;;;30.40;27.90
72794;BME280;63436;26.334;50.194;2023-04-20T00:07:21;100952.14;;;28.98;29.42
72794;BME280;63436;26.334;50.194;2023-04-20T00:09:44;100946.47;;;29.97;29.02
72794;BME280;63436;26.334;50.194;2023-04-20T00:12:10;100941.65;;;30.50;29.30
72794;BME280;63436;26.334;50.194;2023-04-20T00:14:35;100945.14;;;30.50;29.41
72794;BME280;63436;26.334;50.194;2023-04-20T00:17:00;100948.29;;;29.78;29.87
72794;BME280;63436;26.334;50.194;2023-04-20T00:19:25;100949.49;;;30.33;29.88
72794;BME280;63436;26.334;50.194;2023-04-20T00:21:51;100955.39;;;29.50;30.56
72794;BME280;63436;26.334;50.194;2023-04-20T00:24:16;100951.69;;;30.26;29.60
72794;BME280;63436;26.334;50.194;2023-04-20T00:26:42;100955.21;;;29.90;29.91
72794;BME280;63436;26.334;50.194;2023-04-20T00:29:07;100947.67;;;30.15;28.81
72794;BME280;63436;26.334;50.194;2023-04-20T00:31:35;100944.61;;;30.43;27.75
72794;BME280;63436;26.334;50.194;2023-04-20T00:33:59;100949.40;;;30.28;27.37
72794;BME280;63436;26.334;50.194;2023-04-20T00:36:24;100950.60;;;30.38;26.99
72794;BME280;63436;26.334;50.194;2023-04-20T00:38:50;100956.41;;;30.52;26.93
72794;BME280;63436;26.334;50.194;2023-04-20T00:41:15;100958.45;;;29.77;27.22
72794;BME280;63436;26.334;50.194;2023-04-20T00:43:49;100961.65;;;30.30;26.92
72794;BME280;63436;26.334;50.194;2023-04-20T00:46:07;100965.45;;;30.25;26.85
72794;BME280;63436;26.334;50.194;2023-04-20T00:48:31;100968.91;;;30.18;26.51
72794;BME280;63436;26.334;50.194;2023-04-20T00:50:57;100971.27;;;29.32;27.14
72794;BME280;63436;26.334;50.194;2023-04-20T00:53:22;100967.71;;;29.40;27.09
72794;BME280;63436;26.334;50.194;2023-04-20T00:55:49;100963.09;;;30.24;26.23
72794;BME280;63436;26.334;50.194;2023-04-20T00:58:13;100959.51;;;30.55;25.74
72794;BME280;63436;26.334;50.194;2023-04-20T01:00:38;100955.96;;;30.44;25.81
72794;BME280;63436;26.334;50.194;2023-04-20T01:03:03;100955.12;;;29.93;25.95
72794;BME280;63436;26.334;50.194;2023-04-20T01:05:28;100954.74;;;30.34;25.81
72794;BME280;63436;26.334;50.194;2023-04-20T01:07:54;100955.33;;;30.09;26.10
72794;BME280;63436;26.334;50.194;2023-04-20T01:10:20;100951.73;;;30.08;26.12
72794;BME280;63436;26.334;50.194;2023-04-20T01:12:45;100949.58;;;29.96;25.83
72794;BME280;63436;26.334;50.194;2023-04-20T01:15:11;100952.58;;;30.19;25.91
72794;BME280;63436;26.334;50.194;2023-04-20T01:17:36;100953.79;;;29.72;26.07
72794;BME280;63436;26.334;50.194;2023-04-20T01:20:01;100954.67;;;29.70;25.68
72794;BME280;63436;26.334;50.194;2023-04-20T01:22:26;100952.07;;;30.15;25.47
72794;BME280;63436;26.334;50.194;2023-04-20T01:24:52;100949.51;;;30.01;25.60
72794;BME280;63436;26.334;50.194;2023-04-20T01:27:17;100949.20;;;30.11;25.73
72794;BME280;63436;26.334;50.194;2023-04-20T01:29:43;100943.85;;;30.12;25.68
72794;BME280;63436;26.334;50.194;2023-04-20T01:32:08;100939.90;;;30.49;25.61
72794;BME280;63436;26.334;50.194;2023-04-20T01:34:33;100940.35;;;30.40;25.25
72794;BME280;63436;26.334;50.194;2023-04-20T01:36:59;100949.12;;;30.14;25.67
72794;BME280;63436;26.334;50.194;2023-04-20T01:39:24;100951.10;;;30.16;25.60
72794;BME280;63436;26.334;50.194;2023-04-20T01:41:50;100950.77;;;30.16;25.62
72794;BME280;63436;26.334;50.194;2023-04-20T01:44:16;100952.43;;;29.90;25.48
72794;BME280;63436;26.334;50.194;2023-04-20T01:46:42;100956.80;;;30.08;25.26
72794;BME280;63436;26.334;50.194;2023-04-20T01:49:08;100954.64;;;30.69;24.53
72794;BME280;63436;26.334;50.194;2023-04-20T01:51:33;100957.52;;;30.86;24.53
72794;BME280;63436;26.334;50.194;2023-04-20T01:53:58;100954.26;;;30.19;24.60
72794;BME280;63436;26.334;50.194;2023-04-20T01:56:23;100952.50;;;30.35;24.42
72794;BME280;63436;26.334;50.194;2023-04-20T01:58:49;100956.72;;;30.33;24.51
72794;BME280;63436;26.334;50.194;2023-04-20T02:01:14;100956.93;;;30.24;24.68
72794;BME280;63436;26.334;50.194;2023-04-20T02:03:40;100957.75;;;29.90;24.76
72794;BME280;63436;26.334;50.194;2023-04-20T02:06:05;100954.73;;;30.57;24.46
72794;BME280;63436;26.334;50.194;2023-04-20T02:08:31;100955.96;;;30.64;24.50
72794;BME280;63436;26.334;50.194;2023-04-20T02:10:55;100957.48;;;30.10;24.80
72794;BME280;63436;26.334;50.194;2023-04-20T02:13:21;100953.28;;;30.72;24.56
72794;BME280;63436;26.334;50.194;2023-04-20T02:15:46;100952.67;;;30.54;24.43
72794;BME280;63436;26.334;50.194;2023-04-20T02:18:11;100958.75;;;30.14;24.80
72794;BME280;63436;26.334;50.194;2023-04-20T02:20:37;100957.66;;;30.08;24.82
72794;BME280;63436;26.334;50.194;2023-04-20T02:23:02;100958.22;;;30.21;24.64
72794;BME280;63436;26.334;50.194;2023-04-20T02:25:29;100952.52;;;30.78;23.92
72794;BME280;63436;26.334;50.194;2023-04-20T02:27:54;100949.95;;;30.22;24.20
72794;BME280;63436;26.334;50.194;2023-04-20T02:30:20;100946.34;;;30.45;23.88
72794;BME280;63436;26.334;50.194;2023-04-20T02:32:45;100954.34;;;30.02;24.22
72794;BME280;63436;26.334;50.194;2023-04-20T02:35:10;100949.52;;;30.91;23.69
72794;BME280;63436;26.334;50.194;2023-04-20T02:37:35;100951.33;;;30.75;23.70
72794;BME280;63436;26.334;50.194;2023-04-20T02:40:01;100951.24;;;30.73;23.79
72794;BME280;63436;26.334;50.194;2023-04-20T02:42:26;100954.87;;;30.47;23.88
72794;BME280;63436;26.334;50.194;2023-04-20T02:44:51;100952.75;;;30.39;24.02
72794;BME280;63436;26.334;50.194;2023-04-20T02:47:17;100953.40;;;30.90;23.67
72794;BME280;63436;26.334;50.194;2023-04-20T02:49:42;100957.68;;;30.69;23.82
72794;BME280;63436;26.334;50.194;2023-04-20T02:52:08;100961.89;;;30.15;23.89
72794;BME280;63436;26.334;50.194;2023-04-20T02:54:33;100960.88;;;30.27;23.94
72794;BME280;63436;26.334;50.194;2023-04-20T02:56:58;100959.36;;;30.32;23.99
72794;BME280;63436;26.334;50.194;2023-04-20T02:59:23;100951.86;;;30.86;23.61
72794;BME280;63436;26.334;50.194;2023-04-20T03:01:50;100956.75;;;30.17;24.07
72794;BME280;63436;26.334;50.194;2023-04-20T03:04:14;100955.16;;;30.55;23.93
72794;BME280;63436;26.334;50.194;2023-04-20T03:06:41;100951.90;;;30.73;23.71
72794;BME280;63436;26.334;50.194;2023-04-20T03:09:06;100957.33;;;29.36;24.50
72794;BME280;63436;26.334;50.194;2023-04-20T03:11:32;100959.56;;;29.96;24.44
72794;BME280;63436;26.334;50.194;2023-04-20T03:13:56;100958.41;;;29.76;24.60
72794;BME280;63436;26.334;50.194;2023-04-20T03:16:22;100959.34;;;29.97;24.73
72794;BME280;63436;26.334;50.194;2023-04-20T03:18:47;100953.38;;;30.25;24.35
72794;BME280;63436;26.334;50.194;2023-04-20T03:21:12;100952.84;;;30.22;23.76
72794;BME280;63436;26.334;50.194;2023-04-20T03:23:38;100955.49;;;30.78;23.45
72794;BME280;63436;26.334;50.194;2023-04-20T03:26:03;100956.97;;;31.34;22.88
72794;BME280;63436;26.334;50.194;2023-04-20T03:28:29;100955.48;;;31.59;22.56
72794;BME280;63436;26.334;50.194;2023-04-20T03:30:55;100956.51;;;30.91;23.36
72794;BME280;63436;26.334;50.194;2023-04-20T03:33:20;100960.30;;;30.19;23.64
72794;BME280;63436;26.334;50.194;2023-04-20T03:35:45;100956.64;;;31.34;22.78
72794;BME280;63436;26.334;50.194;2023-04-20T03:38:11;100961.15;;;31.25;22.87
72794;BME280;63436;26.334;50.194;2023-04-20T03:40:36;100966.80;;;31.19;23.22
72794;BME280;63436;26.334;50.194;2023-04-20T03:43:01;100964.84;;;30.47;23.24
72794;BME280;63436;26.334;50.194;2023-04-20T03:45:27;100972.56;;;30.86;23.61
72794;BME280;63436;26.334;50.194;2023-04-20T03:47:52;100980.20;;;31.04;23.27
72794;BME280;63436;26.334;50.194;2023-04-20T03:50:18;100991.36;;;30.81;23.34
72794;BME280;63436;26.334;50.194;2023-04-20T03:52:43;100998.73;;;30.58;23.54
72794;BME280;63436;26.334;50.194;2023-04-20T03:55:08;101004.60;;;30.62;23.47
72794;BME280;63436;26.334;50.194;2023-04-20T03:57:33;101009.06;;;30.08;23.68
72794;BME280;63436;26.334;50.194;2023-04-20T03:59:59;101013.61;;;30.16;23.77
72794;BME280;63436;26.334;50.194;2023-04-20T04:02:24;101012.92;;;30.48;23.24
72794;BME280;63436;26.334;50.194;2023-04-20T04:04:49;101014.27;;;30.87;23.11
72794;BME280;63436;26.334;50.194;2023-04-20T04:07:15;101013.34;;;31.32;22.78
72794;BME280;63436;26.334;50.194;2023-04-20T04:09:41;101021.98;;;30.81;23.02
72794;BME280;63436;26.334;50.194;2023-04-20T04:12:07;101026.06;;;30.24;23.22
72794;BME280;63436;26.334;50.194;2023-04-20T04:14:33;101029.56;;;30.44;23.07
72794;BME280;63436;26.334;50.194;2023-04-20T04:16:57;101033.03;;;30.61;23.48
72794;BME280;63436;26.334;50.194;2023-04-20T04:19:22;101031.39;;;30.61;23.29
72794;BME280;63436;26.334;50.194;2023-04-20T04:21:48;101022.91;;;30.85;22.77
72794;BME280;63436;26.334;50.194;2023-04-20T04:24:13;101020.32;;;31.42;22.82
72794;BME280;63436;26.334;50.194;2023-04-20T04:26:38;101016.90;;;31.08;23.02
72794;BME280;63436;26.334;50.194;2023-04-20T04:29:04;101017.13;;;30.83;22.64
72794;BME280;63436;26.334;50.194;2023-04-20T04:31:29;101018.91;;;31.16;22.81
72794;BME280;63436;26.334;50.194;2023-04-20T04:33:55;101020.54;;;31.07;22.65
72794;BME280;63436;26.334;50.194;2023-04-20T04:36:21;101026.81;;;30.60;22.76
72794;BME280;63436;26.334;50.194;2023-04-20T04:38:46;101028.52;;;30.11;23.48
72794;BME280;63436;26.334;50.194;2023-04-20T04:41:12;101029.24;;;31.14;22.73
72794;BME280;63436;26.334;50.194;2023-04-20T04:43:36;101029.24;;;31.73;22.12
72794;BME280;63436;26.334;50.194;2023-04-20T04:46:06;101030.99;;;30.90;22.61
72794;BME280;63436;26.334;50.194;2023-04-20T04:48:37;101031.36;;;32.17;21.80
72794;BME280;63436;26.334;50.194;2023-04-20T04:50:52;101035.03;;;32.37;21.05
72794;BME280;63436;26.334;50.194;2023-04-20T04:53:18;101035.29;;;32.39;21.21
72794;BME280;63436;26.334;50.194;2023-04-20T04:55:44;101035.85;;;32.78;20.80
72794;BME280;63436;26.334;50.194;2023-04-20T04:58:09;101036.28;;;33.00;20.66
72794;BME280;63436;26.334;50.194;2023-04-20T05:00:34;101036.64;;;33.04;20.61
72794;BME280;63436;26.334;50.194;2023-04-20T05:02:59;101032.01;;;33.34;20.14
72794;BME280;63436;26.334;50.194;2023-04-20T05:05:25;101033.21;;;32.91;20.07
72794;BME280;63436;26.334;50.194;2023-04-20T05:08:00;101033.53;;;33.55;19.47
72794;BME280;63436;26.334;50.194;2023-04-20T05:10:16;101034.04;;;32.93;20.08
72794;BME280;63436;26.334;50.194;2023-04-20T05:12:41;101034.27;;;32.88;19.85
72794;BME280;63436;26.334;50.194;2023-04-20T05:15:07;101030.88;;;33.19;20.00
72794;BME280;63436;26.334;50.194;2023-04-20T05:17:32;101029.91;;;33.79;19.49
72794;BME280;63436;26.334;50.194;2023-04-20T05:22:23;101032.68;;;32.32;20.57
72794;BME280;63436;26.334;50.194;2023-04-20T05:24:48;101035.64;;;32.45;20.63
72794;BME280;63436;26.334;50.194;2023-04-20T05:27:12;101037.32;;;32.73;20.68
72794;BME280;63436;26.334;50.194;2023-04-20T05:29:38;101034.35;;;32.84;20.68
72794;BME280;63436;26.334;50.194;2023-04-20T05:32:04;101035.57;;;32.85;20.47
72794;BME280;63436;26.334;50.194;2023-04-20T05:34:29;101034.91;;;33.16;20.41
72794;BME280;63436;26.334;50.194;2023-04-20T05:36:56;101034.48;;;32.75;20.08
72794;BME280;63436;26.334;50.194;2023-04-20T05:39:21;101033.83;;;31.96;20.94
72794;BME280;63436;26.334;50.194;2023-04-20T05:41:46;101033.86;;;33.09;20.28
72794;BME280;63436;26.334;50.194;2023-04-20T05:44:11;101035.36;;;32.77;20.68
72794;BME280;63436;26.334;50.194;2023-04-20T05:46:37;101034.38;;;33.19;20.14
72794;BME280;63436;26.334;50.194;2023-04-20T05:49:02;101034.86;;;34.54;18.81
72794;BME280;63436;26.334;50.194;2023-04-20T05:51:28;101037.01;;;34.00;19.60
72794;BME280;63436;26.334;50.194;2023-04-20T05:53:53;101036.66;;;34.37;18.87
72794;BME280;63436;26.334;50.194;2023-04-20T05:56:19;101035.13;;;34.14;18.51
72794;BME280;63436;26.334;50.194;2023-04-20T05:58:44;101036.26;;;33.58;19.16
72794;BME280;63436;26.334;50.194;2023-04-20T06:01:09;101037.47;;;34.03;19.06
72794;BME280;63436;26.334;50.194;2023-04-20T06:03:35;101035.80;;;34.58;18.21
72794;BME280;63436;26.334;50.194;2023-04-20T06:06:01;101038.89;;;33.63;18.96
72794;BME280;63436;26.334;50.194;2023-04-20T06:08:26;101041.28;;;34.88;18.20
72794;BME280;63436;26.334;50.194;2023-04-20T06:10:53;101037.67;;;34.20;18.46
72794;BME280;63436;26.334;50.194;2023-04-20T06:13:17;101039.45;;;33.78;19.06
72794;BME280;63436;26.334;50.194;2023-04-20T06:15:42;101037.01;;;32.88;18.65
72794;BME280;63436;26.334;50.194;2023-04-20T06:18:08;101038.09;;;33.79;17.78
72794;BME280;63436;26.334;50.194;2023-04-20T06:20:33;101044.59;;;31.73;20.03
72794;BME280;63436;26.334;50.194;2023-04-20T06:22:59;101044.29;;;34.10;18.39
72794;BME280;63436;26.334;50.194;2023-04-20T06:25:24;101046.38;;;34.65;18.30
72794;BME280;63436;26.334;50.194;2023-04-20T06:27:50;101044.34;;;33.68;18.79
72794;BME280;63436;26.334;50.194;2023-04-20T06:30:16;101043.57;;;34.03;18.52
72794;BME280;63436;26.334;50.194;2023-04-20T06:32:41;101040.09;;;33.70;18.55
72794;BME280;63436;26.334;50.194;2023-04-20T06:35:07;101040.10;;;33.87;18.66
72794;BME280;63436;26.334;50.194;2023-04-20T06:37:34;101043.38;;;34.18;18.23
72794;BME280;63436;26.334;50.194;2023-04-20T06:39:57;101043.17;;;34.88;17.98
72794;BME280;63436;26.334;50.194;2023-04-20T06:42:22;101045.39;;;34.59;17.94
72794;BME280;63436;26.334;50.194;2023-04-20T06:44:49;101043.60;;;34.41;18.61
72794;BME280;63436;26.334;50.194;2023-04-20T06:47:14;101039.72;;;33.94;18.14
72794;BME280;63436;26.334;50.194;2023-04-20T06:49:39;101037.06;;;34.18;18.48
72794;BME280;63436;26.334;50.194;2023-04-20T06:52:05;101034.40;;;34.60;18.10
72794;BME280;63436;26.334;50.194;2023-04-20T06:54:30;101029.42;;;33.94;19.39
72794;BME280;63436;26.334;50.194;2023-04-20T06:56:55;101032.66;;;35.27;17.15
72794;BME280;63436;26.334;50.194;2023-04-20T06:59:21;101035.21;;;34.56;17.60
72794;BME280;63436;26.334;50.194;2023-04-20T07:01:45;101038.68;;;34.00;17.85
72794;BME280;63436;26.334;50.194;2023-04-20T07:04:11;101032.51;;;34.25;18.20
72794;BME280;63436;26.334;50.194;2023-04-20T07:06:36;101024.56;;;33.10;19.89
72794;BME280;63436;26.334;50.194;2023-04-20T07:09:01;101018.41;;;33.20;20.39
72794;BME280;63436;26.334;50.194;2023-04-20T07:11:26;101022.65;;;33.87;18.22
72794;BME280;63436;26.334;50.194;2023-04-20T07:13:52;101015.10;;;33.57;18.18
72794;BME280;63436;26.334;50.194;2023-04-20T07:16:17;101008.83;;;34.46;17.68
72794;BME280;63436;26.334;50.194;2023-04-20T07:18:43;101007.09;;;33.85;18.19
72794;BME280;63436;26.334;50.194;2023-04-20T07:21:08;101001.73;;;31.82;19.43
72794;BME280;63436;26.334;50.194;2023-04-20T07:23:33;101001.28;;;34.42;17.32
72794;BME280;63436;26.334;50.194;2023-04-20T07:25:59;100999.90;;;34.20;20.20
72794;BME280;63436;26.334;50.194;2023-04-20T07:28:25;100998.57;;;33.67;23.26
72794;BME280;63436;26.334;50.194;2023-04-20T07:30:50;100999.41;;;33.53;23.66
72794;BME280;63436;26.334;50.194;2023-04-20T07:33:16;100994.95;;;34.33;22.03
72794;BME280;63436;26.334;50.194;2023-04-20T07:35:42;100987.55;;;32.74;21.09
72794;BME280;63436;26.334;50.194;2023-04-20T07:38:07;100980.24;;;34.73;18.50
72794;BME280;63436;26.334;50.194;2023-04-20T07:40:33;100978.42;;;35.43;19.99
72794;BME280;63436;26.334;50.194;2023-04-20T07:42:59;100974.62;;;34.78;19.89
72794;BME280;63436;26.334;50.194;2023-04-20T07:45:25;100968.68;;;35.24;21.49
72794;BME280;63436;26.334;50.194;2023-04-20T07:47:50;100965.35;;;35.82;22.16
72794;BME280;63436;26.334;50.194;2023-04-20T07:50:15;100963.62;;;34.65;22.33
72794;BME280;63436;26.334;50.194;2023-04-20T07:52:40;100958.86;;;34.25;21.86
72794;BME280;63436;26.334;50.194;2023-04-20T07:55:07;100955.36;;;34.97;17.49
72794;BME280;63436;26.334;50.194;2023-04-20T07:57:31;100951.09;;;35.43;16.21
72794;BME280;63436;26.334;50.194;2023-04-20T07:59:57;100948.20;;;35.89;17.23
72794;BME280;63436;26.334;50.194;2023-04-20T09:00:34;100896.14;;;31.64;24.20
72794;BME280;63436;26.334;50.194;2023-04-20T09:02:59;100892.60;;;32.16;23.46
72794;BME280;63436;26.334;50.194;2023-04-20T09:05:26;100887.93;;;32.79;23.13
72794;BME280;63436;26.334;50.194;2023-04-20T09:07:51;100885.59;;;31.37;24.51
72794;BME280;63436;26.334;50.194;2023-04-20T09:10:16;100886.92;;;31.67;24.54
72794;BME280;63436;26.334;50.194;2023-04-20T09:12:42;100887.44;;;32.73;22.08
72794;BME280;63436;26.334;50.194;2023-04-20T09:15:08;100882.87;;;31.72;23.19
72794;BME280;63436;26.334;50.194;2023-04-20T09:17:34;100877.52;;;31.58;22.71
72794;BME280;63436;26.334;50.194;2023-04-20T09:19:58;100872.21;;;31.61;23.19
72794;BME280;63436;26.334;50.194;2023-04-20T09:22:29;100869.58;;;32.82;22.48
72794;BME280;63436;26.334;50.194;2023-04-20T09:24:49;100868.25;;;32.63;22.11
72794;BME280;63436;26.334;50.194;2023-04-20T09:27:16;100865.84;;;32.94;21.16
72794;BME280;63436;26.334;50.194;2023-04-20T09:29:40;100864.38;;;32.46;21.21
72794;BME280;63436;26.334;50.194;2023-04-20T09:32:06;100861.48;;;32.93;21.19
72794;BME280;63436;26.334;50.194;2023-04-20T09:36:56;100852.63;;;32.35;21.34
72794;BME280;63436;26.334;50.194;2023-04-20T09:39:23;100842.41;;;31.88;22.05
72794;BME280;63436;26.334;50.194;2023-04-20T09:41:49;100837.36;;;32.13;20.85
72794;BME280;63436;26.334;50.194;2023-04-20T09:44:15;100829.19;;;33.85;20.14
72794;BME280;63436;26.334;50.194;2023-04-20T09:46:40;100828.57;;;32.31;21.81
72794;BME280;63436;26.334;50.194;2023-04-20T09:49:07;100823.02;;;32.92;20.57
72794;BME280;63436;26.334;50.194;2023-04-20T09:51:32;100819.09;;;32.97;20.95
72794;BME280;63436;26.334;50.194;2023-04-20T09:53:57;100815.77;;;31.83;21.76
72794;BME280;63436;26.334;50.194;2023-04-20T09:56:21;100813.27;;;33.01;21.02
72794;BME280;63436;26.334;50.194;2023-04-20T09:58:47;100812.76;;;33.06;20.49
72794;BME280;63436;26.334;50.194;2023-04-20T10:01:12;100811.07;;;32.59;20.80
72794;BME280;63436;26.334;50.194;2023-04-20T10:03:40;100808.02;;;33.17;20.20
72794;BME280;63436;26.334;50.194;2023-04-20T10:06:04;100802.40;;;33.87;19.81
72794;BME280;63436;26.334;50.194;2023-04-20T10:08:38;100804.44;;;32.76;20.30
72794;BME280;63436;26.334;50.194;2023-04-20T10:10:54;100802.33;;;32.45;20.46
72794;BME280;63436;26.334;50.194;2023-04-20T11:04:14;100738.36;;;31.98;20.04
72794;BME280;63436;26.334;50.194;2023-04-20T11:06:40;100737.99;;;31.58;20.20
72794;BME280;63436;26.334;50.194;2023-04-20T11:09:03;100736.44;;;32.29;19.48
72794;BME280;63436;26.334;50.194;2023-04-20T11:11:29;100734.68;;;31.96;19.83
72794;BME280;63436;26.334;50.194;2023-04-20T11:14:05;100728.91;;;32.21;19.76
72794;BME280;63436;26.334;50.194;2023-04-20T11:16:19;100730.88;;;33.65;18.90
72794;BME280;63436;26.334;50.194;2023-04-20T11:18:49;100736.84;;;31.66;20.39
72794;BME280;63436;26.334;50.194;2023-04-20T11:21:10;100733.60;;;33.22;20.01
72794;BME280;63436;26.334;50.194;2023-04-20T11:23:37;100731.80;;;30.74;22.84
72794;BME280;63436;26.334;50.194;2023-04-20T11:26:01;100731.97;;;31.89;21.36
72794;BME280;63436;26.334;50.194;2023-04-20T11:28:26;100731.07;;;32.03;21.62
72794;BME280;63436;26.334;50.194;2023-04-20T11:30:53;100725.89;;;31.00;22.30
72794;BME280;63436;26.334;50.194;2023-04-20T11:33:24;100721.31;;;33.56;20.02
72794;BME280;63436;26.334;50.194;2023-04-20T11:35:43;100720.32;;;32.88;20.08
72794;BME280;63436;26.334;50.194;2023-04-20T11:38:08;100723.50;;;31.77;20.13
72794;BME280;63436;26.334;50.194;2023-04-20T11:40:33;100718.72;;;33.49;19.06
72794;BME280;63436;26.334;50.194;2023-04-20T11:42:59;100717.33;;;33.64;19.12
72794;BME280;63436;26.334;50.194;2023-04-20T11:45:24;100712.30;;;32.56;19.84
72794;BME280;63436;26.334;50.194;2023-04-20T11:47:49;100709.32;;;32.77;19.61
72794;BME280;63436;26.334;50.194;2023-04-20T11:50:15;100704.24;;;32.89;19.59
72794;BME280;63436;26.334;50.194;2023-04-20T11:52:40;100705.61;;;31.87;19.87
72794;BME280;63436;26.334;50.194;2023-04-20T11:55:06;100701.34;;;31.83;20.03
72794;BME280;63436;26.334;50.194;2023-04-20T11:57:31;100699.92;;;31.71;20.03
72794;BME280;63436;26.334;50.194;2023-04-20T11:59:55;100693.07;;;32.42;19.07
72794;BME280;63436;26.334;50.194;2023-04-20T12:04:54;100687.78;;;33.00;19.31
72794;BME280;63436;26.334;50.194;2023-04-20T12:07:19;100682.98;;;32.65;19.01
72794;BME280;63436;26.334;50.194;2023-04-20T12:09:44;100680.15;;;32.50;19.35
72794;BME280;63436;26.334;50.194;2023-04-20T12:12:13;100681.08;;;32.66;18.88
72794;BME280;63436;26.334;50.194;2023-04-20T12:14:35;100676.19;;;32.55;18.35
72794;BME280;63436;26.334;50.194;2023-04-20T12:16:59;100670.04;;;32.27;18.62
72794;BME280;63436;26.334;50.194;2023-04-20T12:19:24;100669.61;;;33.19;18.17
72794;BME280;63436;26.334;50.194;2023-04-20T12:21:51;100665.46;;;33.18;18.36
72794;BME280;63436;26.334;50.194;2023-04-20T12:24:15;100659.52;;;33.53;18.20
72794;BME280;63436;26.334;50.194;2023-04-20T12:26:40;100660.35;;;32.84;19.04
72794;BME280;63436;26.334;50.194;2023-04-20T12:29:06;100659.64;;;32.47;19.27
72794;BME280;63436;26.334;50.194;2023-04-20T12:31:31;100655.70;;;32.97;18.97
72794;BME280;63436;26.334;50.194;2023-04-20T12:33:57;100653.73;;;33.48;19.02
72794;BME280;63436;26.334;50.194;2023-04-20T12:36:23;100648.49;;;33.65;18.51
72794;BME280;63436;26.334;50.194;2023-04-20T12:38:50;100646.31;;;31.91;19.05
72794;BME280;63436;26.334;50.194;2023-04-20T12:41:15;100649.50;;;32.97;18.72
72794;BME280;63436;26.334;50.194;2023-04-20T12:43:39;100648.75;;;32.29;19.20
72794;BME280;63436;26.334;50.194;2023-04-20T12:46:10;100649.16;;;32.22;18.81
72794;BME280;63436;26.334;50.194;2023-04-20T12:48:31;100653.04;;;32.82;18.48
72794;BME280;63436;26.334;50.194;2023-04-20T12:50:56;100651.36;;;32.84;18.10
72794;BME280;63436;26.334;50.194;2023-04-20T12:53:23;100648.13;;;32.88;18.42
72794;BME280;63436;26.334;50.194;2023-04-20T12:55:49;100646.70;;;33.11;17.93
72794;BME280;63436;26.334;50.194;2023-04-20T12:58:12;100643.26;;;32.72;18.63
72794;BME280;63436;26.334;50.194;2023-04-20T13:00:37;100643.10;;;32.48;19.11
72794;BME280;63436;26.334;50.194;2023-04-20T13:03:09;100645.53;;;32.97;18.87
72794;BME280;63436;26.334;50.194;2023-04-20T13:05:29;100642.00;;;33.39;18.32
72794;BME280;63436;26.334;50.194;2023-04-20T13:07:57;100644.77;;;32.90;18.50
72794;BME280;63436;26.334;50.194;2023-04-20T13:10:20;100643.99;;;31.78;19.61
72794;BME280;63436;26.334;50.194;2023-04-20T13:12:40;100640.81;;;32.24;19.44
72794;BME280;63436;26.334;50.194;2023-04-20T13:15:07;100637.01;;;32.05;20.15
72794;BME280;63436;26.334;50.194;2023-04-20T13:17:30;100634.15;;;31.42;20.32
72794;BME280;63436;26.334;50.194;2023-04-20T13:19:56;100634.25;;;32.05;20.44
72794;BME280;63436;26.334;50.194;2023-04-20T13:22:21;100640.60;;;30.47;19.94
72794;BME280;63436;26.334;50.194;2023-04-20T13:24:52;100640.94;;;32.97;18.72
72794;BME280;63436;26.334;50.194;2023-04-20T14:03:33;100613.51;;;32.22;18.67
72794;BME280;63436;26.334;50.194;2023-04-20T14:05:58;100617.84;;;31.88;18.31
72794;BME280;63436;26.334;50.194;2023-04-20T14:08:23;100619.40;;;31.95;18.29
72794;BME280;63436;26.334;50.194;2023-04-20T14:10:49;100617.06;;;32.53;17.88
72794;BME280;63436;26.334;50.194;2023-04-20T14:13:15;100614.81;;;32.44;18.41
72794;BME280;63436;26.334;50.194;2023-04-20T14:15:40;100612.90;;;32.76;17.89
72794;BME280;63436;26.334;50.194;2023-04-20T14:18:07;100610.02;;;31.56;17.75
72794;BME280;63436;26.334;50.194;2023-04-20T14:20:32;100610.30;;;32.22;18.17
72794;BME280;63436;26.334;50.194;2023-04-20T14:22:57;100609.26;;;32.55;18.26
72794;BME280;63436;26.334;50.194;2023-04-20T14:25:24;100608.87;;;32.05;18.21
72794;BME280;63436;26.334;50.194;2023-04-20T14:27:48;100605.53;;;32.35;17.56
72794;BME280;63436;26.334;50.194;2023-04-20T14:30:14;100606.06;;;32.39;17.38
72794;BME280;63436;26.334;50.194;2023-04-20T14:32:51;100606.89;;;32.68;16.78
72794;BME280;63436;26.334;50.194;2023-04-20T14:35:06;100604.15;;;32.11;16.65
72794;BME280;63436;26.334;50.194;2023-04-20T14:37:31;100604.09;;;31.58;16.29
72794;BME280;63436;26.334;50.194;2023-04-20T14:40:06;100606.65;;;31.09;15.93
72794;BME280;63436;26.334;50.194;2023-04-20T14:42:22;100600.48;;;31.81;15.65
72794;BME280;63436;26.334;50.194;2023-04-20T14:44:51;100600.74;;;32.60;15.05
72794;BME280;63436;26.334;50.194;2023-04-20T14:47:18;100606.94;;;32.58;15.67
72794;BME280;63436;26.334;50.194;2023-04-20T14:49:42;100609.66;;;32.01;15.79
72794;BME280;63436;26.334;50.194;2023-04-20T14:52:08;100611.86;;;33.01;15.38
72794;BME280;63436;26.334;50.194;2023-04-20T14:54:36;100611.18;;;31.50;15.70
72794;BME280;63436;26.334;50.194;2023-04-20T14:57:04;100611.73;;;32.55;15.38
72794;BME280;63436;26.334;50.194;2023-04-20T14:59:22;100615.67;;;32.03;14.93
72794;BME280;63436;26.334;50.194;2023-04-20T15:01:50;100615.65;;;32.27;15.24